sensor_id;sensor_type;location;lat;lon;timestamp;pressure;altitude;pressure_sealevel;temperature;humidity
40872;BME280;26591;43.264;26.940;2023-11-21T00:00:13;98730.06;;;7.06;77.13
40872;BME280;26591;43.264;26.940;2023-11-21T00:02:39;98725.72;;;6.96;76.67
40872;BME280;26591;43.264;26.940;2023-11-21T00:05:09;98746.16;;;7.02;76.41
40872;BME280;26591;43.264;26.940;2023-11-21T00:08:06;98748.56;;;6.78;77.37
40872;BME280;26591;43.264;26.940;2023-11-21T00:10:31;98748.16;;;6.72;76.97
40872;BME280;26591;43.264;26.940;2023-11-21T00:12:57;98741.59;;;6.86;77.74
40872;BME280;26591;43.264;26.940;2023-11-21T00:15:22;98746.22;;;6.75;76.76
40872;BME280;26591;43.264;26.940;2023-11-21T00:17:50;98745.94;;;6.78;76.95
40872;BME280;26591;43.264;26.940;2023-11-21T00:20:15;98745.56;;;6.91;77.32
40872;BME280;26591;43.264;26.940;2023-11-21T00:22:41;98743.97;;;6.98;76.61
40872;BME280;26591;43.264;26.940;2023-11-21T00:25:07;98743.53;;;7.02;77.13
40872;BME280;26591;43.264;26.940;2023-11-21T00:27:35;98738.66;;;7.08;76.54
40872;BME280;26591;43.264;26.940;2023-11-21T00:30:00;98735.34;;;7.06;76.25
40872;BME280;26591;43.264;26.940;2023-11-21T00:32:29;98729.78;;;7.09;76.49
40872;BME280;26591;43.264;26.940;2023-11-21T00:34:54;98736.91;;;7.16;75.93
40872;BME280;26591;43.264;26.940;2023-11-21T00:37:20;98744.66;;;7.18;76.13
40872;BME280;26591;43.264;26.940;2023-11-21T00:39:45;98735.56;;;6.94;75.93
40872;BME280;26591;43.264;26.940;2023-11-21T00:42:13;98735.56;;;6.48;77.65
40872;BME280;26591;43.264;26.940;2023-11-21T00:44:39;98743.34;;;6.68;77.37
40872;BME280;26591;43.264;26.940;2023-11-21T00:47:05;98738.34;;;6.93;77.41
40872;BME280;26591;43.264;26.940;2023-11-21T00:49:35;98737.50;;;7.10;76.47
40872;BME280;26591;43.264;26.940;2023-11-21T00:52:00;98745.06;;;7.05;75.94
40872;BME280;26591;43.264;26.940;2023-11-21T00:54:27;98743.91;;;7.08;76.04
40872;BME280;26591;43.264;26.940;2023-11-21T00:57:13;98737.97;;;7.06;75.12
40872;BME280;26591;43.264;26.940;2023-11-21T00:59:39;98726.31;;;6.90;75.60
40872;BME280;26591;43.264;26.940;2023-11-21T01:02:04;98731.88;;;6.87;75.27
40872;BME280;26591;43.264;26.940;2023-11-21T01:04:30;98730.13;;;6.60;76.12
40872;BME280;26591;43.264;26.940;2023-11-21T01:06:57;98724.72;;;6.79;76.61
40872;BME280;26591;43.264;26.940;2023-11-21T01:09:24;98731.19;;;6.85;75.83
40872;BME280;26591;43.264;26.940;2023-11-21T01:11:49;98724.03;;;6.59;76.11
40872;BME280;26591;43.264;26.940;2023-11-21T01:14:20;98718.56;;;6.70;76.20
40872;BME280;26591;43.264;26.940;2023-11-21T01:16:45;98723.69;;;6.72;76.09
40872;BME280;26591;43.264;26.940;2023-11-21T01:19:11;98721.63;;;6.66;76.37
40872;BME280;26591;43.264;26.940;2023-11-21T01:21:36;98714.03;;;6.63;75.89
40872;BME280;26591;43.264;26.940;2023-11-21T01:24:02;98716.66;;;6.45;76.19
40872;BME280;26591;43.264;26.940;2023-11-21T01:26:28;98717.34;;;6.47;76.86
40872;BME280;26591;43.264;26.940;2023-11-21T01:28:54;98719.50;;;6.51;76.71
40872;BME280;26591;43.264;26.940;2023-11-21T01:31:19;98719.97;;;6.65;76.55
40872;BME280;26591;43.264;26.940;2023-11-21T01:33:45;98715.84;;;6.62;76.52
40872;BME280;26591;43.264;26.940;2023-11-21T01:36:11;98721.19;;;6.70;76.18
40872;BME280;26591;43.264;26.940;2023-11-21T01:38:36;98718.03;;;6.67;76.59
40872;BME280;26591;43.264;26.940;2023-11-21T01:41:01;98717.75;;;6.70;75.97
40872;BME280;26591;43.264;26.940;2023-11-21T01:43:31;98714.38;;;6.78;75.89
40872;BME280;26591;43.264;26.940;2023-11-21T01:45:57;98712.72;;;6.77;75.66
40872;BME280;26591;43.264;26.940;2023-11-21T01:48:24;98713.63;;;6.85;75.28
40872;BME280;26591;43.264;26.940;2023-11-21T01:50:51;98719.34;;;6.81;75.55
40872;BME280;26591;43.264;26.940;2023-11-21T01:53:19;98719.63;;;6.78;75.81
40872;BME280;26591;43.264;26.940;2023-11-21T01:55:46;98714.66;;;6.93;75.42
40872;BME280;26591;43.264;26.940;2023-11-21T01:58:12;98716.31;;;6.94;75.26
40872;BME280;26591;43.264;26.940;2023-11-21T02:00:41;98718.94;;;6.94;75.39
40872;BME280;26591;43.264;26.940;2023-11-21T02:03:07;98717.97;;;6.95;74.79
40872;BME280;26591;43.264;26.940;2023-11-21T02:05:32;98716.38;;;6.84;75.35
40872;BME280;26591;43.264;26.940;2023-11-21T02:07:58;98715.41;;;6.85;74.77
40872;BME280;26591;43.264;26.940;2023-11-21T02:10:24;98711.81;;;6.86;74.95
40872;BME280;26591;43.264;26.940;2023-11-21T02:12:49;98715.34;;;6.59;75.94
40872;BME280;26591;43.264;26.940;2023-11-21T02:15:18;98713.69;;;6.30;76.31
40872;BME280;26591;43.264;26.940;2023-11-21T02:17:47;98721.75;;;6.18;76.05
40872;BME280;26591;43.264;26.940;2023-11-21T02:20:19;98721.66;;;6.38;75.82
40872;BME280;26591;43.264;26.940;2023-11-21T02:22:53;98732.91;;;6.58;75.72
40872;BME280;26591;43.264;26.940;2023-11-21T02:25:24;98737.88;;;6.61;75.57
40872;BME280;26591;43.264;26.940;2023-11-21T02:27:49;98724.38;;;6.74;75.13
40872;BME280;26591;43.264;26.940;2023-11-21T02:30:16;98737.00;;;6.43;75.71
40872;BME280;26591;43.264;26.940;2023-11-21T02:32:42;98729.59;;;6.56;75.54
40872;BME280;26591;43.264;26.940;2023-11-21T02:35:08;98741.25;;;6.71;75.74
40872;BME280;26591;43.264;26.940;2023-11-21T02:37:34;98735.56;;;6.76;76.30
40872;BME280;26591;43.264;26.940;2023-11-21T02:40:01;98735.63;;;6.84;75.61
40872;BME280;26591;43.264;26.940;2023-11-21T02:42:29;98733.22;;;6.73;75.15
40872;BME280;26591;43.264;26.940;2023-11-21T02:44:55;98730.31;;;6.76;74.95
40872;BME280;26591;43.264;26.940;2023-11-21T02:47:20;98732.16;;;6.84;75.06
40872;BME280;26591;43.264;26.940;2023-11-21T02:49:46;98737.81;;;6.89;74.83
40872;BME280;26591;43.264;26.940;2023-11-21T02:52:11;98736.06;;;6.62;75.23
40872;BME280;26591;43.264;26.940;2023-11-21T02:54:36;98736.53;;;6.75;75.71
40872;BME280;26591;43.264;26.940;2023-11-21T02:57:04;98733.22;;;6.91;75.29
40872;BME280;26591;43.264;26.940;2023-11-21T02:59:31;98725.84;;;6.77;75.52
40872;BME280;26591;43.264;26.940;2023-11-21T03:01:56;98720.81;;;6.83;75.07
40872;BME280;26591;43.264;26.940;2023-11-21T03:04:22;98721.50;;;6.85;74.94
40872;BME280;26591;43.264;26.940;2023-11-21T03:06:47;98723.00;;;6.52;75.23
40872;BME280;26591;43.264;26.940;2023-11-21T03:09:13;98720.69;;;6.39;75.60
40872;BME280;26591;43.264;26.940;2023-11-21T03:11:38;98718.16;;;6.19;75.85
40872;BME280;26591;43.264;26.940;2023-11-21T03:14:04;98725.19;;;6.01;76.45
40872;BME280;26591;43.264;26.940;2023-11-21T03:16:32;98715.97;;;6.15;75.99
40872;BME280;26591;43.264;26.940;2023-11-21T03:18:57;98716.91;;;6.23;76.37
40872;BME280;26591;43.264;26.940;2023-11-21T03:21:26;98707.75;;;6.28;76.53
40872;BME280;26591;43.264;26.940;2023-11-21T03:23:51;98710.19;;;6.39;75.74
40872;BME280;26591;43.264;26.940;2023-11-21T03:26:18;98707.81;;;6.18;76.51
40872;BME280;26591;43.264;26.940;2023-11-21T03:28:45;98709.69;;;6.25;76.18
40872;BME280;26591;43.264;26.940;2023-11-21T03:31:11;98710.19;;;6.11;76.85
40872;BME280;26591;43.264;26.940;2023-11-21T03:33:41;98717.28;;;5.91;77.06
40872;BME280;26591;43.264;26.940;2023-11-21T03:36:07;98716.69;;;5.97;77.09
40872;BME280;26591;43.264;26.940;2023-11-21T03:38:33;98717.28;;;6.01;77.07
40872;BME280;26591;43.264;26.940;2023-11-21T03:41:17;98712.28;;;6.07;76.79
40872;BME280;26591;43.264;26.940;2023-11-21T03:43:42;98717.66;;;6.06;76.69
40872;BME280;26591;43.264;26.940;2023-11-21T03:46:08;98715.88;;;6.06;77.03
40872;BME280;26591;43.264;26.940;2023-11-21T03:48:33;98722.34;;;6.12;77.10
40872;BME280;26591;43.264;26.940;2023-11-21T03:50:59;98722.06;;;6.15;76.46
40872;BME280;26591;43.264;26.940;2023-11-21T03:53:24;98715.88;;;6.34;76.44
40872;BME280;26591;43.264;26.940;2023-11-21T03:55:49;98717.00;;;6.32;77.17
40872;BME280;26591;43.264;26.940;2023-11-21T03:58:16;98718.81;;;6.49;76.59
40872;BME280;26591;43.264;26.940;2023-11-21T04:00:42;98718.78;;;6.59;76.02
40872;BME280;26591;43.264;26.940;2023-11-21T04:03:07;98724.19;;;6.76;75.65
40872;BME280;26591;43.264;26.940;2023-11-21T04:05:33;98728.88;;;6.82;75.84
40872;BME280;26591;43.264;26.940;2023-11-21T04:07:58;98728.13;;;6.90;75.03
40872;BME280;26591;43.264;26.940;2023-11-21T04:10:24;98722.75;;;6.45;75.37
40872;BME280;26591;43.264;26.940;2023-11-21T04:12:49;98733.63;;;6.50;74.73
40872;BME280;26591;43.264;26.940;2023-11-21T04:15:14;98734.94;;;6.46;75.25
40872;BME280;26591;43.264;26.940;2023-11-21T04:17:41;98737.59;;;6.36;74.88
40872;BME280;26591;43.264;26.940;2023-11-21T04:20:07;98736.88;;;6.44;74.87
40872;BME280;26591;43.264;26.940;2023-11-21T04:22:41;98730.72;;;5.78;76.93
40872;BME280;26591;43.264;26.940;2023-11-21T04:25:14;98742.00;;;6.08;76.44
40872;BME280;26591;43.264;26.940;2023-11-21T04:27:40;98744.41;;;5.81;77.17
40872;BME280;26591;43.264;26.940;2023-11-21T04:30:09;98740.63;;;6.04;76.85
40872;BME280;26591;43.264;26.940;2023-11-21T04:32:37;98740.22;;;6.08;76.38
40872;BME280;26591;43.264;26.940;2023-11-21T04:35:04;98735.31;;;6.23;76.26
40872;BME280;26591;43.264;26.940;2023-11-21T04:37:30;98744.34;;;6.39;76.29
40872;BME280;26591;43.264;26.940;2023-11-21T04:39:55;98742.97;;;6.35;76.26
40872;BME280;26591;43.264;26.940;2023-11-21T04:42:21;98738.84;;;6.32;76.32
40872;BME280;26591;43.264;26.940;2023-11-21T04:44:47;98740.50;;;6.33;76.30
40872;BME280;26591;43.264;26.940;2023-11-21T04:47:12;98733.44;;;6.34;75.71
40872;BME280;26591;43.264;26.940;2023-11-21T04:49:41;98735.94;;;6.35;76.00
40872;BME280;26591;43.264;26.940;2023-11-21T04:52:07;98742.94;;;6.45;75.80
40872;BME280;26591;43.264;26.940;2023-11-21T04:54:35;98746.41;;;6.45;75.70
40872;BME280;26591;43.264;26.940;2023-11-21T04:57:00;98744.28;;;6.31;75.42
40872;BME280;26591;43.264;26.940;2023-11-21T04:59:26;98744.28;;;6.31;75.86
40872;BME280;26591;43.264;26.940;2023-11-21T05:01:53;98742.69;;;6.38;75.66
40872;BME280;26591;43.264;26.940;2023-11-21T05:04:19;98746.69;;;6.42;75.82
40872;BME280;26591;43.264;26.940;2023-11-21T05:06:44;98743.91;;;6.44;75.90
40872;BME280;26591;43.264;26.940;2023-11-21T05:09:11;98742.13;;;6.44;75.48
40872;BME280;26591;43.264;26.940;2023-11-21T05:11:38;98753.25;;;6.28;75.40
40872;BME280;26591;43.264;26.940;2023-11-21T05:14:04;98751.75;;;6.25;76.23
40872;BME280;26591;43.264;26.940;2023-11-21T05:16:30;98753.13;;;6.30;75.82
40872;BME280;26591;43.264;26.940;2023-11-21T05:18:56;98759.44;;;6.37;76.40
40872;BME280;26591;43.264;26.940;2023-11-21T05:21:28;98766.34;;;6.66;76.22
40872;BME280;26591;43.264;26.940;2023-11-21T05:24:00;98759.53;;;6.91;75.96
40872;BME280;26591;43.264;26.940;2023-11-21T05:26:25;98761.13;;;7.02;76.05
40872;BME280;26591;43.264;26.940;2023-11-21T05:28:51;98764.28;;;7.42;76.09
40872;BME280;26591;43.264;26.940;2023-11-21T05:31:16;98762.13;;;7.63;75.77
40872;BME280;26591;43.264;26.940;2023-11-21T05:33:43;98767.75;;;7.95;75.87
40872;BME280;26591;43.264;26.940;2023-11-21T05:36:24;98778.94;;;8.50;74.77
40872;BME280;26591;43.264;26.940;2023-11-21T05:42:07;98787.03;;;9.49;69.71
40872;BME280;26591;43.264;26.940;2023-11-21T05:44:34;98780.72;;;9.75;70.28
40872;BME280;26591;43.264;26.940;2023-11-21T05:47:00;98787.28;;;10.04;69.31
40872;BME280;26591;43.264;26.940;2023-11-21T05:49:25;98791.34;;;10.31;67.80
40872;BME280;26591;43.264;26.940;2023-11-21T05:51:53;98789.44;;;10.65;68.23
40872;BME280;26591;43.264;26.940;2023-11-21T05:54:19;98785.41;;;11.09;64.97
40872;BME280;26591;43.264;26.940;2023-11-21T05:56:45;98791.31;;;11.34;63.54
40872;BME280;26591;43.264;26.940;2023-11-21T05:59:10;98791.56;;;11.48;63.60
40872;BME280;26591;43.264;26.940;2023-11-21T06:01:36;98787.66;;;11.97;62.09
40872;BME280;26591;43.264;26.940;2023-11-21T06:04:04;98791.25;;;12.34;60.35
40872;BME280;26591;43.264;26.940;2023-11-21T06:06:29;98795.28;;;12.45;60.29
40872;BME280;26591;43.264;26.940;2023-11-21T06:08:56;98797.47;;;12.56;58.40
40872;BME280;26591;43.264;26.940;2023-11-21T06:11:21;98785.69;;;12.44;58.27
40872;BME280;26591;43.264;26.940;2023-11-21T06:13:47;98783.75;;;12.52;58.85
40872;BME280;26591;43.264;26.940;2023-11-21T06:16:13;98784.13;;;12.86;57.76
40872;BME280;26591;43.264;26.940;2023-11-21T06:18:41;98788.00;;;13.05;56.75
40872;BME280;26591;43.264;26.940;2023-11-21T06:21:09;98791.13;;;13.31;56.78
40872;BME280;26591;43.264;26.940;2023-11-21T06:23:36;98796.16;;;13.40;55.98
40872;BME280;26591;43.264;26.940;2023-11-21T06:26:01;98791.13;;;13.31;55.91
40872;BME280;26591;43.264;26.940;2023-11-21T06:28:27;98793.13;;;13.43;55.41
40872;BME280;26591;43.264;26.940;2023-11-21T06:30:53;98787.03;;;13.50;55.38
40872;BME280;26591;43.264;26.940;2023-11-21T06:33:22;98784.50;;;13.92;54.62
40872;BME280;26591;43.264;26.940;2023-11-21T06:35:48;98787.34;;;14.18;54.22
40872;BME280;26591;43.264;26.940;2023-11-21T06:38:13;98788.97;;;14.55;53.77
40872;BME280;26591;43.264;26.940;2023-11-21T06:40:39;98788.88;;;14.83;52.18
40872;BME280;26591;43.264;26.940;2023-11-21T06:43:06;98792.00;;;15.00;51.58
40872;BME280;26591;43.264;26.940;2023-11-21T06:45:33;98792.28;;;15.25;50.56
40872;BME280;26591;43.264;26.940;2023-11-21T06:47:59;98797.63;;;15.46;50.75
40872;BME280;26591;43.264;26.940;2023-11-21T06:50:25;98798.06;;;15.36;50.08
40872;BME280;26591;43.264;26.940;2023-11-21T06:52:51;98797.63;;;15.52;49.74
40872;BME280;26591;43.264;26.940;2023-11-21T06:55:16;98802.56;;;15.49;50.28
40872;BME280;26591;43.264;26.940;2023-11-21T06:57:41;98801.13;;;15.46;49.86
40872;BME280;26591;43.264;26.940;2023-11-21T07:00:08;98814.06;;;15.36;50.33
40872;BME280;26591;43.264;26.940;2023-11-21T07:02:34;98805.00;;;15.37;50.52
40872;BME280;26591;43.264;26.940;2023-11-21T07:04:59;98804.19;;;15.30;50.54
40872;BME280;26591;43.264;26.940;2023-11-21T07:07:25;98801.91;;;15.20;51.29
40872;BME280;26591;43.264;26.940;2023-11-21T07:09:51;98792.25;;;15.12;50.13
40872;BME280;26591;43.264;26.940;2023-11-21T07:12:17;98789.50;;;14.78;51.09
40872;BME280;26591;43.264;26.940;2023-11-21T07:14:43;98789.38;;;14.58;52.26
40872;BME280;26591;43.264;26.940;2023-11-21T07:17:14;98784.03;;;14.16;53.47
40872;BME280;26591;43.264;26.940;2023-11-21T07:19:41;98788.28;;;14.04;54.80
40872;BME280;26591;43.264;26.940;2023-11-21T07:22:07;98795.91;;;13.85;55.66
40872;BME280;26591;43.264;26.940;2023-11-21T07:24:34;98789.06;;;13.69;55.49
40872;BME280;26591;43.264;26.940;2023-11-21T07:27:02;98789.06;;;13.69;55.13
40872;BME280;26591;43.264;26.940;2023-11-21T07:29:29;98788.34;;;13.39;56.54
40872;BME280;26591;43.264;26.940;2023-11-21T07:31:55;98793.09;;;13.22;56.68
40872;BME280;26591;43.264;26.940;2023-11-21T07:34:21;98786.34;;;12.82;57.76
40872;BME280;26591;43.264;26.940;2023-11-21T07:36:46;98786.03;;;12.41;59.74
40872;BME280;26591;43.264;26.940;2023-11-21T07:39:12;98789.69;;;12.10;60.75
40872;BME280;26591;43.264;26.940;2023-11-21T07:41:40;98790.22;;;11.90;60.93
40872;BME280;26591;43.264;26.940;2023-11-21T07:44:10;98793.56;;;11.69;62.61
40872;BME280;26591;43.264;26.940;2023-11-21T07:46:35;98787.13;;;11.40;62.56
40872;BME280;26591;43.264;26.940;2023-11-21T07:49:01;98789.75;;;10.70;65.27
40872;BME280;26591;43.264;26.940;2023-11-21T07:51:27;98793.06;;;10.16;66.69
40872;BME280;26591;43.264;26.940;2023-11-21T07:53:52;98796.75;;;10.55;67.35
40872;BME280;26591;43.264;26.940;2023-11-21T07:56:18;98787.50;;;10.50;66.68
40872;BME280;26591;43.264;26.940;2023-11-21T07:58:43;98783.91;;;10.43;66.04
40872;BME280;26591;43.264;26.940;2023-11-21T08:01:10;98783.09;;;10.74;65.82
40872;BME280;26591;43.264;26.940;2023-11-21T08:03:35;98786.63;;;10.98;65.78
40872;BME280;26591;43.264;26.940;2023-11-21T08:06:01;98787.78;;;11.19;65.36
40872;BME280;26591;43.264;26.940;2023-11-21T08:08:28;98774.03;;;11.47;65.00
40872;BME280;26591;43.264;26.940;2023-11-21T08:10:54;98776.53;;;12.16;65.01
40872;BME280;26591;43.264;26.940;2023-11-21T08:13:26;98782.84;;;12.30;64.63
40872;BME280;26591;43.264;26.940;2023-11-21T08:15:56;98799.75;;;12.59;63.04
40872;BME280;26591;43.264;26.940;2023-11-21T08:18:22;98791.34;;;12.41;61.89
40872;BME280;26591;43.264;26.940;2023-11-21T08:20:48;98790.38;;;12.27;62.40
40872;BME280;26591;43.264;26.940;2023-11-21T08:23:16;98784.38;;;12.10;62.50
40872;BME280;26591;43.264;26.940;2023-11-21T08:25:45;98788.88;;;12.09;62.69
40872;BME280;26591;43.264;26.940;2023-11-21T08:28:11;98790.69;;;12.09;62.61
40872;BME280;26591;43.264;26.940;2023-11-21T08:30:37;98799.84;;;12.21;62.65
40872;BME280;26591;43.264;26.940;2023-11-21T08:33:02;98796.19;;;12.22;62.97
40872;BME280;26591;43.264;26.940;2023-11-21T08:35:31;98796.00;;;12.39;62.29
40872;BME280;26591;43.264;26.940;2023-11-21T08:37:56;98792.88;;;12.65;61.88
40872;BME280;26591;43.264;26.940;2023-11-21T08:40:23;98788.00;;;12.69;61.37
40872;BME280;26591;43.264;26.940;2023-11-21T08:42:48;98783.78;;;12.74;61.46
40872;BME280;26591;43.264;26.940;2023-11-21T08:45:15;98778.56;;;12.81;61.41
40872;BME280;26591;43.264;26.940;2023-11-21T08:47:42;98774.88;;;12.82;61.02
40872;BME280;26591;43.264;26.940;2023-11-21T08:50:10;98775.63;;;13.12;60.08
40872;BME280;26591;43.264;26.940;2023-11-21T08:52:37;98769.25;;;13.07;60.11
40872;BME280;26591;43.264;26.940;2023-11-21T08:55:04;98768.41;;;13.06;59.50
40872;BME280;26591;43.264;26.940;2023-11-21T08:57:36;98771.06;;;13.06;59.71
40872;BME280;26591;43.264;26.940;2023-11-21T09:00:03;98760.88;;;13.10;60.09
40872;BME280;26591;43.264;26.940;2023-11-21T09:02:32;98752.72;;;13.11;60.16
40872;BME280;26591;43.264;26.940;2023-11-21T09:04:59;98748.50;;;13.17;59.68
40872;BME280;26591;43.264;26.940;2023-11-21T09:07:24;98760.13;;;13.38;59.04
40872;BME280;26591;43.264;26.940;2023-11-21T09:09:50;98749.88;;;13.56;58.15
40872;BME280;26591;43.264;26.940;2023-11-21T09:12:16;98746.34;;;13.49;58.71
40872;BME280;26591;43.264;26.940;2023-11-21T09:14:45;98745.66;;;13.69;58.62
40872;BME280;26591;43.264;26.940;2023-11-21T09:17:11;98741.78;;;13.65;58.56
40872;BME280;26591;43.264;26.940;2023-11-21T09:19:38;98734.50;;;13.80;58.18
40872;BME280;26591;43.264;26.940;2023-11-21T09:22:04;98738.28;;;13.64;58.33
40872;BME280;26591;43.264;26.940;2023-11-21T09:24:31;98731.22;;;13.78;58.54
40872;BME280;26591;43.264;26.940;2023-11-21T09:26:56;98729.06;;;13.95;58.17
40872;BME280;26591;43.264;26.940;2023-11-21T09:29:22;98733.16;;;13.98;57.73
40872;BME280;26591;43.264;26.940;2023-11-21T09:31:47;98728.94;;;13.75;58.21
40872;BME280;26591;43.264;26.940;2023-11-21T09:34:13;98725.94;;;13.56;58.88
40872;BME280;26591;43.264;26.940;2023-11-21T09:36:38;98723.75;;;13.17;59.86
40872;BME280;26591;43.264;26.940;2023-11-21T09:39:04;98719.47;;;13.16;59.94
40872;BME280;26591;43.264;26.940;2023-11-21T09:41:36;98712.63;;;12.85;61.23
40872;BME280;26591;43.264;26.940;2023-11-21T09:44:05;98699.44;;;12.55;61.52
40872;BME280;26591;43.264;26.940;2023-11-21T09:46:37;98705.69;;;12.32;62.82
40872;BME280;26591;43.264;26.940;2023-11-21T09:49:35;98694.03;;;12.11;63.00
40872;BME280;26591;43.264;26.940;2023-11-21T09:52:01;98695.38;;;12.37;62.41
40872;BME280;26591;43.264;26.940;2023-11-21T09:54:29;98695.59;;;12.57;62.75
40872;BME280;26591;43.264;26.940;2023-11-21T09:56:57;98701.31;;;12.97;61.38
40872;BME280;26591;43.264;26.940;2023-11-21T09:59:23;98691.41;;;13.35;60.51
40872;BME280;26591;43.264;26.940;2023-11-21T10:01:49;98690.31;;;13.79;59.27
40872;BME280;26591;43.264;26.940;2023-11-21T10:04:15;98683.13;;;14.15;58.09
40872;BME280;26591;43.264;26.940;2023-11-21T10:06:43;98687.94;;;14.40;57.33
40872;BME280;26591;43.264;26.940;2023-11-21T10:09:14;98682.25;;;14.56;57.54
40872;BME280;26591;43.264;26.940;2023-11-21T10:11:41;98677.84;;;14.77;57.09
40872;BME280;26591;43.264;26.940;2023-11-21T10:14:11;98675.59;;;15.01;56.19
40872;BME280;26591;43.264;26.940;2023-11-21T10:16:41;98675.81;;;15.39;54.73
40872;BME280;26591;43.264;26.940;2023-11-21T10:19:10;98666.34;;;15.57;53.98
40872;BME280;26591;43.264;26.940;2023-11-21T10:21:38;98664.25;;;15.79;54.17
40872;BME280;26591;43.264;26.940;2023-11-21T10:24:04;98658.22;;;16.11;53.44
40872;BME280;26591;43.264;26.940;2023-11-21T10:26:31;98659.00;;;16.18;52.29
40872;BME280;26591;43.264;26.940;2023-11-21T10:29:03;98663.16;;;16.14;52.63
40872;BME280;26591;43.264;26.940;2023-11-21T10:31:33;98650.94;;;16.38;50.86
40872;BME280;26591;43.264;26.940;2023-11-21T10:34:16;98655.66;;;16.36;50.77
40872;BME280;26591;43.264;26.940;2023-11-21T10:36:42;98656.44;;;16.43;50.64
40872;BME280;26591;43.264;26.940;2023-11-21T10:39:07;98646.03;;;16.67;49.41
40872;BME280;26591;43.264;26.940;2023-11-21T10:41:35;98646.34;;;16.45;50.50
40872;BME280;26591;43.264;26.940;2023-11-21T10:44:01;98647.66;;;16.68;49.87
40872;BME280;26591;43.264;26.940;2023-11-21T10:46:29;98648.91;;;16.98;49.08
40872;BME280;26591;43.264;26.940;2023-11-21T10:48:56;98651.47;;;17.11;48.09
40872;BME280;26591;43.264;26.940;2023-11-21T10:51:22;98646.25;;;16.98;47.99
40872;BME280;26591;43.264;26.940;2023-11-21T10:54:09;98639.09;;;16.59;48.91
40872;BME280;26591;43.264;26.940;2023-11-21T10:56:35;98633.00;;;16.45;48.80
40872;BME280;26591;43.264;26.940;2023-11-21T10:59:08;98621.63;;;16.25;49.77
40872;BME280;26591;43.264;26.940;2023-11-21T11:01:35;98618.78;;;16.52;48.67
40872;BME280;26591;43.264;26.940;2023-11-21T11:04:02;98618.84;;;16.45;48.80
40872;BME280;26591;43.264;26.940;2023-11-21T11:06:29;98606.22;;;16.20;48.59
40872;BME280;26591;43.264;26.940;2023-11-21T11:08:58;98609.44;;;16.68;47.34
40872;BME280;26591;43.264;26.940;2023-11-21T11:11:28;98599.16;;;16.97;46.58
40872;BME280;26591;43.264;26.940;2023-11-21T11:13:53;98606.41;;;17.15;45.60
40872;BME280;26591;43.264;26.940;2023-11-21T11:16:19;98599.81;;;17.36;45.36
40872;BME280;26591;43.264;26.940;2023-11-21T11:18:45;98600.50;;;17.87;44.70
40872;BME280;26591;43.264;26.940;2023-11-21T11:21:37;98599.53;;;18.19;44.38
40872;BME280;26591;43.264;26.940;2023-11-21T11:30:11;98598.91;;;18.35;43.53
40872;BME280;26591;43.264;26.940;2023-11-21T11:36:17;98599.38;;;17.95;44.13
40872;BME280;26591;43.264;26.940;2023-11-21T11:38:46;98605.06;;;18.05;43.71
40872;BME280;26591;43.264;26.940;2023-11-21T11:41:27;98605.72;;;18.50;42.88
40872;BME280;26591;43.264;26.940;2023-11-21T11:43:55;98591.56;;;18.30;42.73
40872;BME280;26591;43.264;26.940;2023-11-21T11:46:20;98594.69;;;18.27;43.68
40872;BME280;26591;43.264;26.940;2023-11-21T11:48:48;98589.59;;;18.38;43.76
40872;BME280;26591;43.264;26.940;2023-11-21T11:51:15;98594.56;;;18.65;43.19
40872;BME280;26591;43.264;26.940;2023-11-21T11:53:46;98594.78;;;18.63;42.75
40872;BME280;26591;43.264;26.940;2023-11-21T11:56:31;98587.25;;;18.41;42.84
40872;BME280;26591;43.264;26.940;2023-11-21T11:59:01;98577.28;;;18.18;43.38
40872;BME280;26591;43.264;26.940;2023-11-21T12:01:34;98576.88;;;18.03;43.80
40872;BME280;26591;43.264;26.940;2023-11-21T12:06:51;98572.03;;;18.11;43.03
40872;BME280;26591;43.264;26.940;2023-11-21T12:09:23;98562.09;;;18.30;43.67
40872;BME280;26591;43.264;26.940;2023-11-21T12:11:50;98560.09;;;18.26;43.71
40872;BME280;26591;43.264;26.940;2023-11-21T12:14:16;98567.25;;;18.13;43.54
40872;BME280;26591;43.264;26.940;2023-11-21T12:16:43;98555.59;;;18.08;43.13
40872;BME280;26591;43.264;26.940;2023-11-21T12:19:12;98557.41;;;17.58;44.33
40872;BME280;26591;43.264;26.940;2023-11-21T12:21:38;98548.88;;;17.31;44.70
40872;BME280;26591;43.264;26.940;2023-11-21T12:24:04;98552.47;;;16.99;46.08
40872;BME280;26591;43.264;26.940;2023-11-21T12:26:34;98557.09;;;16.85;46.24
40872;BME280;26591;43.264;26.940;2023-11-21T12:29:00;98548.41;;;16.65;47.31
40872;BME280;26591;43.264;26.940;2023-11-21T12:31:28;98548.38;;;16.97;47.80
40872;BME280;26591;43.264;26.940;2023-11-21T12:33:54;98547.50;;;17.03;47.11
40872;BME280;26591;43.264;26.940;2023-11-21T12:36:24;98545.22;;;17.06;46.28
40872;BME280;26591;43.264;26.940;2023-11-21T12:38:50;98538.59;;;16.84;47.20
40872;BME280;26591;43.264;26.940;2023-11-21T12:41:16;98543.34;;;16.56;47.89
40872;BME280;26591;43.264;26.940;2023-11-21T12:43:46;98538.38;;;16.85;47.81
40872;BME280;26591;43.264;26.940;2023-11-21T12:46:13;98537.13;;;16.88;48.25
40872;BME280;26591;43.264;26.940;2023-11-21T12:48:41;98538.28;;;16.99;47.92
40872;BME280;26591;43.264;26.940;2023-11-21T12:51:11;98538.38;;;16.85;49.04
40872;BME280;26591;43.264;26.940;2023-11-21T12:53:37;98540.75;;;16.93;48.81
40872;BME280;26591;43.264;26.940;2023-11-21T12:56:10;98528.66;;;16.91;48.34
40872;BME280;26591;43.264;26.940;2023-11-21T12:58:40;98523.53;;;16.96;48.24
40872;BME280;26591;43.264;26.940;2023-11-21T13:01:13;98522.72;;;17.14;48.28
40872;BME280;26591;43.264;26.940;2023-11-21T13:03:43;98521.59;;;17.03;49.25
40872;BME280;26591;43.264;26.940;2023-11-21T13:06:10;98520.03;;;17.14;49.39
40872;BME280;26591;43.264;26.940;2023-11-21T13:08:37;98519.31;;;17.26;49.28
40872;BME280;26591;43.264;26.940;2023-11-21T13:11:04;98514.78;;;17.07;50.07